Results: 2018 Fyn ITU Duathlon World Championships | 35-39 Female AG Sprint
Fyn, Denmark • 08 Jul, 2018
Pos First Name Last Name YOB Country Start
Num
Time Run T1 Bike T2 Run
1 Kirsten Sass 1979 USA 2517 01:05:21 00:20:02 00:01:29 00:32:31 00:02:07 00:09:12
2 Nicola Timmins 1980 GBR 2510 01:06:53 00:20:03 00:01:27 00:33:37 00:01:57 00:09:49
3 Tafara Pulse 1983 USA 2516 01:07:57 00:20:38 00:01:47 00:33:29 00:02:03 00:10:00
4 Georgina Almaraz Perez 1983 MEX 2511 01:08:13 00:20:37 00:01:42 00:33:36 00:02:23 00:09:55
5 Helen Sahgal 1983 GBR 2509 01:09:51 00:19:58 00:01:40 00:36:32 00:02:27 00:09:14
6 Erica Martin 1982 GBR 2506 01:10:11 00:20:45 00:01:57 00:35:48 00:02:17 00:09:24
7 Laura Pescott 1981 GBR 2507 01:11:08 00:21:00 00:01:42 00:35:41 00:02:15 00:10:30
8 Charlotte Mathieu 1979 FRA 2500 01:11:12 00:22:04 00:01:45 00:34:53 00:02:10 00:10:20
9 Estelle Le Dizes 1981 FRA 2501 01:11:35 00:22:14 00:01:50 00:34:46 00:02:14 00:10:31
10 Karina Kaufmann 1980 GBR 2505 01:12:24 00:22:24 00:01:43 00:35:19 00:02:28 00:10:30
11 Ruth Jones 1980 GBR 2504 01:12:38 00:21:51 00:01:55 00:36:47 00:02:21 00:09:44
12 Lisa Gawthorne 1981 GBR 2502 01:12:42 00:21:07 00:02:09 00:36:37 00:02:33 00:10:16
13 Jennifer Schindler 1983 CAN 2520 01:13:06 00:21:42 00:02:20 00:35:36 00:02:48 00:10:40
14 Beccy Poole 1980 GBR 2508 01:13:07 00:21:30 00:01:45 00:37:18 00:02:23 00:10:11
15 Suellen Vaughan 1982 AUS 2519 01:13:16 00:23:07 00:01:58 00:35:25 00:02:19 00:10:27
16 Nicola Glibbery 1983 GBR 2503 01:13:49 00:22:48 00:01:45 00:36:03 00:02:25 00:10:48
17 Joanna Szymczyk 1979 CAN 2521 01:17:21 00:24:15 00:01:51 00:37:47 00:02:22 00:11:06
18 Myrna Morales Marquez 1981 MEX 2514 01:17:52 00:22:59 00:02:12 00:39:23 00:02:44 00:10:34
19 Cecilia Guzman Nava 1979 MEX 2512 01:19:57 00:24:43 00:02:10 00:38:16 00:02:55 00:11:53
20 Rebecca West 1981 USA 2518 01:28:50 00:26:52 00:03:20 00:42:50 00:03:16 00:12:32
Program notes:

Technical Delegate: Duncan Hough/GBR. Head Referee: Ulf Schuetze/CAN.
Competition Jury: Duncan Hough/GBR, Brian Hinton/AUS, Morten Fenger/DEN.
Distances: Run 5.5km (3 laps), Bike 19.9km (1 lap), Run 2.5km (1 lap)
Air temperature: 16.6C; Humidity: 52.7%